Time;durP1;ratioP1;P1;durP2;ratioP2;P2;SDS_P1;SDS_P2;PMS_P1;PMS_P2;Temp;Humidity;BMP_temperature;BMP_pressure;BME280_temperature;BME280_humidity;BME280_pressure;Samples;Min_cycle;Max_cycle;Signal;HPM_P1;HPM_P2
2023/09/14 00:00:50;;;;;;;4.40;2.13;;;9.80;99.90;;;;;;5067369;28;20516;-81
2023/09/14 00:03:15;;;;;;;4.18;2.50;;;9.80;99.90;;;;;;5063792;28;20056;-80
2023/09/14 00:05:47;;;;;;;2.65;2.30;;;9.80;99.90;;;;;;5073297;28;20040;-80
2023/09/14 00:08:13;;;;;;;6.93;3.43;;;9.80;99.90;;;;;;5067315;28;20452;-80
2023/09/14 00:10:40;;;;;;;4.43;2.70;;;9.80;99.90;;;;;;5067028;28;20139;-80
2023/09/14 00:13:06;;;;;;;5.50;2.55;;;9.80;99.90;;;;;;5075881;28;20448;-81
2023/09/14 00:15:33;;;;;;;3.60;2.40;;;9.80;99.90;;;;;;5071161;28;20681;-80
2023/09/14 00:17:58;;;;;;;3.78;2.50;;;9.80;99.90;;;;;;5073171;28;20069;-81
2023/09/14 00:20:26;;;;;;;3.83;2.58;;;9.70;99.90;;;;;;5072026;28;20101;-80
2023/09/14 00:22:53;;;;;;;3.72;2.33;;;9.70;99.90;;;;;;5067211;28;20049;-80
2023/09/14 00:25:20;;;;;;;3.22;2.10;;;9.70;99.90;;;;;;5069020;28;20047;-80
2023/09/14 00:27:46;;;;;;;3.28;2.30;;;9.70;99.90;;;;;;5068758;28;20048;-80
2023/09/14 00:30:12;;;;;;;2.47;2.15;;;9.70;99.90;;;;;;5077498;28;20049;-80
2023/09/14 00:32:42;;;;;;;3.60;2.50;;;9.70;99.90;;;;;;5068848;28;20410;-80
2023/09/14 00:35:09;;;;;;;5.03;2.45;;;9.60;99.90;;;;;;5085160;28;20048;-80
2023/09/14 00:37:35;;;;;;;3.55;2.17;;;9.60;99.90;;;;;;5075195;28;20118;-81
2023/09/14 00:40:06;;;;;;;4.93;2.10;;;9.60;99.90;;;;;;5077673;28;20621;-80
2023/09/14 00:42:48;;;;;;;2.88;2.58;;;9.50;99.90;;;;;;5079167;28;20052;-81
2023/09/14 00:45:16;;;;;;;3.67;2.03;;;9.50;99.90;;;;;;5080191;28;20102;-81
2023/09/14 00:47:45;;;;;;;2.50;1.85;;;9.50;99.90;;;;;;5069943;28;20043;-80
2023/09/14 00:50:16;;;;;;;2.65;2.05;;;9.50;99.90;;;;;;5077764;28;20109;-81
2023/09/14 00:52:44;;;;;;;3.58;2.00;;;9.50;99.90;;;;;;5079713;28;20386;-80
2023/09/14 00:55:10;;;;;;;2.55;2.13;;;9.50;99.90;;;;;;5077999;28;20492;-80
2023/09/14 00:57:38;;;;;;;4.40;2.30;;;9.50;99.90;;;;;;5083999;28;20521;-81
2023/09/14 01:00:10;;;;;;;3.92;2.42;;;10.40;99.90;;;;;;5078982;28;20106;-80
2023/09/14 01:02:36;;;;;;;;;;;9.50;99.90;;;;;;5079681;28;20040;-81
2023/09/14 01:05:03;;;;;;;4.65;2.42;;;9.50;99.90;;;;;;5074555;28;20351;-81
2023/09/14 01:07:29;;;;;;;2.75;2.50;;;9.50;99.90;;;;;;5069121;28;20167;-81
2023/09/14 01:09:55;;;;;;;4.50;2.55;;;9.50;99.90;;;;;;5068735;28;20163;-81
2023/09/14 01:12:21;;;;;;;4.22;2.45;;;9.50;99.90;;;;;;5069624;28;20074;-80
2023/09/14 01:15:11;;;;;;;3.70;2.50;;;9.40;99.90;;;;;;5071914;28;20036;-81
2023/09/14 01:17:50;;;;;;;4.53;2.90;;;9.50;99.90;;;;;;5069270;28;20049;-81
2023/09/14 01:20:33;;;;;;;4.47;2.10;;;9.40;99.90;;;;;;5078692;28;20052;-81
2023/09/14 01:23:01;;;;;;;4.00;2.60;;;9.40;99.90;;;;;;5062384;28;20525;-81
2023/09/14 01:25:43;;;;;;;5.38;2.50;;;9.40;99.90;;;;;;5075260;28;20497;-80
2023/09/14 01:28:13;;;;;;;3.92;2.22;;;9.40;99.90;;;;;;5070257;28;20048;-80
2023/09/14 01:30:40;;;;;;;6.25;2.33;;;9.30;99.90;;;;;;5069147;28;20097;-81
2023/09/14 01:33:09;;;;;;;4.20;2.80;;;9.40;99.90;;;;;;5083631;28;20064;-80
2023/09/14 01:35:42;;;;;;;4.18;2.50;;;9.30;99.90;;;;;;5077733;28;20044;-81
2023/09/14 01:38:08;;;;;;;4.22;2.22;;;9.40;99.90;;;;;;5072943;28;20055;-80
2023/09/14 01:40:36;;;;;;;5.20;2.42;;;9.30;99.90;;;;;;5068980;28;20049;-81
2023/09/14 01:43:05;;;;;;;4.93;2.33;;;9.30;99.90;;;;;;5051703;28;20394;-81
2023/09/14 01:45:33;;;;;;;3.85;2.63;;;9.30;99.90;;;;;;5070122;28;20043;-81
2023/09/14 01:48:00;;;;;;;4.72;2.25;;;9.30;99.90;;;;;;5074655;28;20052;-80
2023/09/14 01:50:25;;;;;;;3.88;2.17;;;9.30;99.90;;;;;;5076016;28;20414;-81
2023/09/14 01:52:52;;;;;;;2.97;2.35;;;9.30;99.90;;;;;;5069601;28;20049;-81
2023/09/14 01:55:18;;;;;;;3.67;2.55;;;9.20;99.90;;;;;;5069326;28;20036;-81
2023/09/14 01:57:45;;;;;;;3.45;2.13;;;9.20;99.90;;;;;;5084616;28;20079;-81
2023/09/14 02:00:10;;;;;;;3.05;2.10;;;9.20;99.90;;;;;;5077345;28;20080;-81
2023/09/14 02:02:36;;;;;;;4.75;2.17;;;9.20;99.90;;;;;;5083722;28;20102;-81
2023/09/14 02:05:02;;;;;;;3.03;2.05;;;9.20;99.90;;;;;;5083499;28;20045;-81
2023/09/14 02:07:27;;;;;;;2.80;2.05;;;9.20;99.90;;;;;;5067283;28;20105;-80
2023/09/14 02:09:53;;;;;;;2.95;2.13;;;9.20;99.90;;;;;;5069317;28;20406;-80
2023/09/14 02:12:20;;;;;;;4.07;2.25;;;9.20;99.90;;;;;;5070531;28;20457;-80
2023/09/14 02:14:46;;;;;;;3.63;2.10;;;9.20;99.90;;;;;;5087538;28;20122;-80
2023/09/14 02:17:11;;;;;;;2.03;1.67;;;9.20;99.90;;;;;;5075084;28;20581;-81
2023/09/14 02:19:37;;;;;;;2.25;2.03;;;9.20;99.90;;;;;;5069226;28;20072;-81
2023/09/14 02:22:03;;;;;;;2.20;1.85;;;9.10;99.90;;;;;;5077656;28;20051;-80
2023/09/14 02:24:28;;;;;;;3.45;2.00;;;9.10;99.90;;;;;;5072702;28;20056;-80
2023/09/14 02:26:54;;;;;;;3.15;2.03;;;9.10;99.90;;;;;;5079001;28;20048;-81
2023/09/14 02:29:23;;;;;;;2.78;1.67;;;9.00;99.90;;;;;;5067302;28;20048;-81
2023/09/14 02:31:48;;;;;;;2.08;1.90;;;9.00;99.90;;;;;;5075324;28;20047;-81
2023/09/14 02:34:14;;;;;;;1.98;1.77;;;8.90;99.90;;;;;;5089532;28;20043;-80
2023/09/14 02:36:39;;;;;;;2.45;1.95;;;8.90;99.90;;;;;;5076650;28;20033;-81
2023/09/14 02:39:05;;;;;;;1.83;1.50;;;8.90;99.90;;;;;;5070186;28;20048;-81
2023/09/14 02:41:31;;;;;;;2.40;1.67;;;8.90;99.90;;;;;;5074355;28;20139;-81
2023/09/14 02:43:56;;;;;;;3.13;1.73;;;8.80;99.90;;;;;;5087869;28;20085;-81
2023/09/14 02:46:22;;;;;;;2.22;1.60;;;8.80;99.90;;;;;;5075406;28;20048;-80
2023/09/14 02:48:48;;;;;;;1.83;1.60;;;8.80;99.90;;;;;;5066817;28;20052;-80
2023/09/14 02:51:13;;;;;;;3.15;1.48;;;8.80;99.90;;;;;;5072598;28;20047;-81
2023/09/14 02:53:39;;;;;;;1.77;1.60;;;8.80;99.90;;;;;;5084578;28;20036;-81
2023/09/14 02:56:11;;;;;;;2.53;1.65;;;8.70;99.90;;;;;;5081617;28;20123;-81
2023/09/14 02:58:38;;;;;;;1.98;1.67;;;8.70;99.90;;;;;;5081136;28;20050;-81
2023/09/14 03:01:08;;;;;;;1.83;1.40;;;8.70;99.90;;;;;;5070453;28;21065;-81
2023/09/14 03:03:38;;;;;;;4.30;1.63;;;8.70;99.90;;;;;;5068118;28;20044;-80
2023/09/14 03:06:05;;;;;;;1.50;1.30;;;8.70;99.90;;;;;;5070865;28;20044;-80
2023/09/14 03:08:31;;;;;;;1.63;1.52;;;8.60;99.90;;;;;;5088343;28;20048;-80
2023/09/14 03:10:57;;;;;;;1.98;1.65;;;8.60;99.90;;;;;;5084600;28;20035;-80
2023/09/14 03:13:23;;;;;;;2.03;1.33;;;8.60;99.90;;;;;;5067575;28;20050;-80
2023/09/14 03:15:56;;;;;;;1.42;1.27;;;8.60;99.90;;;;;;5067349;28;20123;-80
2023/09/14 03:18:23;;;;;;;2.53;1.50;;;8.60;99.90;;;;;;5070492;28;20040;-80
2023/09/14 03:20:52;;;;;;;2.85;1.25;;;8.60;99.90;;;;;;5087400;28;20122;-80
2023/09/14 03:23:17;;;;;;;1.45;1.35;;;8.60;99.90;;;;;;5076358;28;20045;-80
2023/09/14 03:25:43;;;;;;;1.50;1.40;;;8.50;99.90;;;;;;5067968;28;20040;-80
2023/09/14 03:28:09;;;;;;;2.63;1.25;;;8.50;99.90;;;;;;5067418;28;20044;-80
2023/09/14 03:30:35;;;;;;;1.90;1.30;;;8.60;99.90;;;;;;5067351;28;20768;-81
2023/09/14 03:33:01;;;;;;;1.95;1.30;;;8.50;99.90;;;;;;5069441;28;20109;-80
2023/09/14 03:35:26;;;;;;;1.50;1.20;;;8.50;99.90;;;;;;5067942;28;20041;-80
2023/09/14 03:37:52;;;;;;;2.90;1.23;;;8.50;99.90;;;;;;5059114;28;20048;-81
2023/09/14 03:40:18;;;;;;;2.40;1.23;;;8.50;99.90;;;;;;5082147;28;20047;-80
2023/09/14 03:42:43;;;;;;;1.30;1.20;;;8.50;99.90;;;;;;5068360;28;20048;-80
2023/09/14 03:45:09;;;;;;;1.40;1.30;;;8.50;99.90;;;;;;5102295;28;20498;-80
2023/09/14 03:47:35;;;;;;;2.70;1.52;;;8.40;99.90;;;;;;5083670;28;20044;-81
2023/09/14 03:50:01;;;;;;;5.68;1.40;;;8.40;99.90;;;;;;5065216;28;20139;-81
2023/09/14 03:52:26;;;;;;;2.95;1.60;;;8.40;99.90;;;;;;5065993;28;20048;-80
2023/09/14 03:55:02;;;;;;;1.90;1.35;;;8.50;99.90;;;;;;5071917;28;20045;-83
2023/09/14 03:57:29;;;;;;;2.25;1.40;;;8.40;99.90;;;;;;5067030;28;20048;-82
2023/09/14 03:59:55;;;;;;;2.83;1.58;;;8.40;99.90;;;;;;5084657;28;20043;-80
2023/09/14 04:02:20;;;;;;;2.90;1.40;;;8.40;99.90;;;;;;5086172;28;20052;-80
2023/09/14 04:04:46;;;;;;;2.45;1.60;;;8.40;99.90;;;;;;5074782;28;20497;-80
2023/09/14 04:07:12;;;;;;;1.67;1.58;;;8.40;99.90;;;;;;5078627;28;20097;-81
2023/09/14 04:09:38;;;;;;;2.35;1.58;;;8.40;99.90;;;;;;5087963;28;20103;-80
2023/09/14 04:12:04;;;;;;;1.65;1.55;;;8.40;99.90;;;;;;5068308;28;21755;-80
2023/09/14 04:14:30;;;;;;;3.40;1.48;;;8.40;99.90;;;;;;5074563;28;20052;-80
2023/09/14 04:16:57;;;;;;;1.70;1.60;;;8.40;99.90;;;;;;5076224;28;20146;-80
2023/09/14 04:19:27;;;;;;;2.92;1.40;;;8.30;99.90;;;;;;5076448;28;20056;-80
2023/09/14 04:21:52;;;;;;;2.20;1.83;;;8.30;99.90;;;;;;5074492;28;20040;-80
2023/09/14 04:24:19;;;;;;;5.90;1.92;;;8.40;99.90;;;;;;5085963;28;20039;-80
2023/09/14 04:26:44;;;;;;;5.03;2.42;;;8.30;99.90;;;;;;5069272;28;20045;-80
2023/09/14 04:29:11;;;;;;;2.30;1.98;;;8.30;99.90;;;;;;5067499;28;20541;-80
2023/09/14 04:31:37;;;;;;;5.82;3.47;;;8.30;99.90;;;;;;5080047;28;20040;-80
2023/09/14 04:34:02;;;;;;;3.90;2.00;;;8.30;99.90;;;;;;5086391;28;20047;-80
2023/09/14 04:36:28;;;;;;;2.25;2.03;;;8.30;99.90;;;;;;5068008;28;20044;-80
2023/09/14 04:38:54;;;;;;;5.35;2.88;;;8.30;99.90;;;;;;5080779;28;20060;-80
2023/09/14 04:41:19;;;;;;;3.53;2.20;;;8.30;99.90;;;;;;5067245;28;20102;-80
2023/09/14 04:43:45;;;;;;;2.90;2.22;;;8.30;99.90;;;;;;5074620;28;20032;-80
2023/09/14 04:46:10;;;;;;;4.00;2.75;;;8.30;99.90;;;;;;5078843;28;20055;-80
2023/09/14 04:48:41;;;;;;;5.32;3.00;;;8.30;99.90;;;;;;5070091;28;20051;-82
2023/09/14 04:51:07;;;;;;;4.53;2.72;;;8.30;99.90;;;;;;5064829;28;20904;-82
2023/09/14 04:53:33;;;;;;;3.47;2.40;;;8.30;99.90;;;;;;5067292;28;20056;-82
2023/09/14 04:55:59;;;;;;;4.65;2.58;;;8.30;99.90;;;;;;5066591;28;20554;-82
2023/09/14 04:58:24;;;;;;;2.80;2.20;;;8.30;99.90;;;;;;5080428;28;20039;-82
2023/09/14 05:00:50;;;;;;;4.72;2.40;;;;;;;;;;5085080;28;20056;-82
2023/09/14 05:03:17;;;;;;;3.70;2.50;;;8.30;99.90;;;;;;5086948;28;20082;-81
2023/09/14 05:05:43;;;;;;;5.47;3.13;;;8.40;99.90;;;;;;5084536;28;20048;-82
2023/09/14 05:08:09;;;;;;;4.18;2.75;;;8.40;99.90;;;;;;5077697;28;20051;-81
2023/09/14 05:10:36;;;;;;;3.60;2.58;;;8.40;99.90;;;;;;5083282;28;20040;-80
2023/09/14 05:13:02;;;;;;;4.03;2.47;;;8.30;99.90;;;;;;5073427;28;20507;-81
2023/09/14 05:15:28;;;;;;;3.90;2.22;;;8.40;99.90;;;;;;5071451;28;20075;-80
2023/09/14 05:17:53;;;;;;;3.33;2.47;;;8.40;99.90;;;;;;5070630;28;20140;-81
2023/09/14 05:20:19;;;;;;;3.05;2.70;;;8.40;99.90;;;;;;5070852;28;20041;-81
2023/09/14 05:22:44;;;;;;;6.75;3.03;;;8.40;99.90;;;;;;5070512;28;20058;-81
2023/09/14 05:25:10;;;;;;;5.15;3.13;;;8.40;99.90;;;;;;5070123;28;20052;-81
2023/09/14 05:27:38;;;;;;;5.20;3.40;;;8.50;99.90;;;;;;5070237;28;20119;-81
2023/09/14 05:30:11;;;;;;;5.22;2.85;;;8.50;99.90;;;;;;5074562;28;20071;-80
2023/09/14 05:32:38;;;;;;;3.45;2.85;;;8.50;99.90;;;;;;5089939;28;20051;-80
2023/09/14 05:35:06;;;;;;;5.93;3.65;;;8.50;99.90;;;;;;5090291;28;20047;-81
2023/09/14 05:37:32;;;;;;;7.70;3.50;;;8.60;99.90;;;;;;5088344;28;20052;-80
2023/09/14 05:39:58;;;;;;;6.72;3.42;;;8.60;99.90;;;;;;5090714;28;20044;-80
2023/09/14 05:42:23;;;;;;;4.57;3.03;;;8.70;99.90;;;;;;5090340;28;20113;-80
2023/09/14 05:44:49;;;;;;;3.95;3.20;;;8.70;99.90;;;;;;5087602;28;20838;-80
2023/09/14 05:47:15;;;;;;;4.22;3.17;;;8.70;99.90;;;;;;5087556;28;20050;-81
2023/09/14 05:49:41;;;;;;;4.22;3.13;;;8.80;99.90;;;;;;5075593;28;20132;-82
2023/09/14 05:52:07;;;;;;;4.68;3.08;;;8.80;99.90;;;;;;5077112;28;20414;-82
2023/09/14 05:54:33;;;;;;;6.07;3.03;;;8.80;99.90;;;;;;5090353;28;20044;-82
2023/09/14 05:56:58;;;;;;;5.43;3.10;;;8.90;99.90;;;;;;5089987;28;20141;-81
2023/09/14 05:59:24;;;;;;;4.18;2.92;;;8.90;99.90;;;;;;5090404;28;20058;-81
2023/09/14 06:01:51;;;;;;;3.78;2.88;;;8.90;99.90;;;;;;5090259;28;20059;-81
2023/09/14 06:04:17;;;;;;;4.65;3.05;;;9.00;99.90;;;;;;5078889;28;20075;-81
2023/09/14 06:06:42;;;;;;;7.80;3.38;;;9.00;99.90;;;;;;5071162;28;20048;-81
2023/09/14 06:09:08;;;;;;;4.28;3.40;;;9.10;99.90;;;;;;5068584;28;20516;-82
2023/09/14 06:11:34;;;;;;;4.85;3.08;;;9.10;99.90;;;;;;5073408;28;20113;-81
2023/09/14 06:14:00;;;;;;;6.97;3.25;;;9.20;99.90;;;;;;5080889;28;20137;-81
2023/09/14 06:16:26;;;;;;;5.38;3.00;;;9.40;99.90;;;;;;5068461;28;20072;-82
2023/09/14 06:18:53;;;;;;;4.78;3.17;;;9.50;99.90;;;;;;5069545;28;20106;-83
2023/09/14 06:21:19;;;;;;;3.50;2.83;;;9.70;99.90;;;;;;5068279;28;20036;-82
2023/09/14 06:23:46;;;;;;;5.85;3.25;;;9.80;99.90;;;;;;5074729;28;20045;-82
2023/09/14 06:26:11;;;;;;;4.53;3.65;;;10.00;99.90;;;;;;5089644;28;20044;-80
2023/09/14 06:28:37;;;;;;;4.57;3.25;;;10.10;99.90;;;;;;5089578;28;20062;-80
2023/09/14 06:31:03;;;;;;;5.70;3.30;;;10.20;99.90;;;;;;5089378;28;20245;-82
2023/09/14 06:33:29;;;;;;;5.32;3.83;;;10.30;99.90;;;;;;5080894;28;20075;-82
2023/09/14 06:35:54;;;;;;;5.85;3.40;;;10.40;99.90;;;;;;5070383;28;20049;-82
2023/09/14 06:38:20;;;;;;;5.82;4.10;;;10.50;99.90;;;;;;5059162;28;20040;-82
2023/09/14 06:40:45;;;;;;;4.30;3.50;;;10.60;99.90;;;;;;5068327;28;20086;-81
2023/09/14 06:43:11;;;;;;;4.68;3.55;;;10.70;99.90;;;;;;5069815;28;20052;-81
2023/09/14 06:45:37;;;;;;;7.97;3.80;;;10.80;99.90;;;;;;5089174;28;20044;-82
2023/09/14 06:48:02;;;;;;;7.68;3.58;;;10.90;99.90;;;;;;5089310;28;20067;-82
2023/09/14 06:50:28;;;;;;;4.75;3.45;;;11.00;99.90;;;;;;5080724;28;20084;-81
2023/09/14 06:52:54;;;;;;;4.75;3.03;;;11.10;99.90;;;;;;5074125;28;20054;-82
2023/09/14 06:55:20;;;;;;;5.72;3.30;;;11.20;99.90;;;;;;5070229;28;20120;-83
2023/09/14 06:57:45;;;;;;;3.42;2.90;;;11.30;99.90;;;;;;5068337;28;20116;-82
2023/09/14 07:00:15;;;;;;;7.93;3.60;;;11.50;99.90;;;;;;5067282;28;20559;-82
2023/09/14 07:02:42;;;;;;;6.65;3.25;;;11.60;99.90;;;;;;5057410;28;20040;-83
2023/09/14 07:05:10;;;;;;;5.88;3.58;;;11.70;99.90;;;;;;5059879;28;20410;-84
2023/09/14 07:07:40;;;;;;;8.20;2.80;;;11.80;99.90;;;;;;5085046;28;20559;-84
2023/09/14 07:10:07;;;;;;;9.15;2.85;;;12.00;99.90;;;;;;5077003;28;20106;-83
2023/09/14 07:12:34;;;;;;;6.70;2.95;;;12.00;99.90;;;;;;5068335;28;20067;-83
2023/09/14 07:14:59;;;;;;;4.60;2.42;;;12.20;99.90;;;;;;5066079;28;20049;-83
2023/09/14 07:17:25;;;;;;;3.25;2.35;;;12.30;99.90;;;;;;5068255;28;20051;-83
2023/09/14 07:19:51;;;;;;;4.45;2.63;;;12.50;99.90;;;;;;5068215;28;20052;-81
2023/09/14 07:22:18;;;;;;;6.30;2.47;;;12.60;99.90;;;;;;5068164;28;20056;-82
2023/09/14 07:24:44;;;;;;;6.15;2.35;;;12.70;99.90;;;;;;5066936;28;20435;-83
2023/09/14 07:27:10;;;;;;;8.43;2.38;;;12.80;99.90;;;;;;5073179;28;20180;-82
2023/09/14 07:29:35;;;;;;;5.72;2.90;;;13.00;99.90;;;;;;5086964;28;20059;-82
2023/09/14 07:32:01;;;;;;;4.50;2.20;;;13.10;99.90;;;;;;5088497;28;20127;-82
2023/09/14 07:34:27;;;;;;;5.60;2.67;;;13.20;99.90;;;;;;5088474;28;20039;-82
2023/09/14 07:36:53;;;;;;;3.40;2.40;;;13.40;99.90;;;;;;5086857;28;20113;-82
2023/09/14 07:39:18;;;;;;;5.53;2.30;;;13.50;99.90;;;;;;5081517;28;20066;-81
2023/09/14 07:41:44;;;;;;;5.68;2.80;;;13.60;99.90;;;;;;5087721;28;20065;-80
2023/09/14 07:44:09;;;;;;;7.55;2.03;;;13.70;99.90;;;;;;5084984;28;20391;-81
2023/09/14 07:46:36;;;;;;;5.05;3.13;;;14.50;99.90;;;;;;5086802;28;20134;-81
2023/09/14 07:49:02;;;;;;;3.78;2.30;;;13.90;99.90;;;;;;5068839;28;20060;-81
2023/09/14 07:51:28;;;;;;;6.72;3.05;;;14.00;99.90;;;;;;5073020;28;20054;-81
2023/09/14 07:53:55;;;;;;;5.97;2.70;;;14.10;99.90;;;;;;5084648;28;20209;-81
2023/09/14 07:56:24;;;;;;;6.15;2.50;;;14.20;99.90;;;;;;5086862;28;20126;-81
2023/09/14 07:58:49;;;;;;;5.15;2.50;;;14.30;99.90;;;;;;5084576;28;20043;-81
2023/09/14 08:01:15;;;;;;;6.25;1.85;;;14.40;99.90;;;;;;5075586;28;20040;-82
2023/09/14 08:03:40;;;;;;;6.55;2.20;;;14.60;99.90;;;;;;5073111;28;20141;-82
2023/09/14 08:06:06;;;;;;;3.35;1.95;;;14.70;99.90;;;;;;5075216;28;20063;-82
2023/09/14 08:08:33;;;;;;;6.22;2.00;;;14.80;99.90;;;;;;5083874;28;20077;-82
2023/09/14 08:11:00;;;;;;;8.45;2.40;;;14.90;99.90;;;;;;5076237;28;20057;-82
2023/09/14 08:13:26;;;;;;;4.78;2.30;;;15.00;99.90;;;;;;5087083;28;20040;-82
2023/09/14 08:15:52;;;;;;;3.33;2.20;;;15.20;99.90;;;;;;5080587;28;20044;-81
2023/09/14 08:18:19;;;;;;;4.10;2.30;;;15.20;99.90;;;;;;5073926;28;20463;-81
2023/09/14 08:20:46;;;;;;;4.47;2.00;;;15.70;99.90;;;;;;5065843;28;20048;-82
2023/09/14 08:23:13;;;;;;;8.40;2.40;;;15.40;99.90;;;;;;5058546;28;20067;-81
2023/09/14 08:25:45;;;;;;;5.95;2.47;;;15.60;99.90;;;;;;5067565;28;20732;-82
2023/09/14 08:28:14;;;;;;;7.28;2.10;;;15.70;99.90;;;;;;5065650;28;20091;-82
2023/09/14 08:30:41;;;;;;;4.38;1.92;;;15.80;99.90;;;;;;5066022;28;20119;-81
2023/09/14 08:33:07;;;;;;;7.65;2.10;;;16.00;99.90;;;;;;5066270;28;20118;-81
2023/09/14 08:35:34;;;;;;;8.10;1.83;;;16.00;99.90;;;;;;5064582;28;20049;-80
2023/09/14 08:38:03;;;;;;;8.38;2.13;;;16.10;99.90;;;;;;5063713;28;20044;-81
2023/09/14 08:40:29;;;;;;;5.50;1.88;;;16.20;99.90;;;;;;5065976;28;20414;-81
2023/09/14 08:42:56;;;;;;;5.63;1.70;;;16.30;99.90;;;;;;5067362;28;20043;-81
2023/09/14 08:45:32;;;;;;;6.50;1.77;;;16.40;99.90;;;;;;5068622;28;20041;-81
2023/09/14 08:47:59;;;;;;;7.93;1.75;;;16.50;99.90;;;;;;5070485;28;20041;-87
2023/09/14 08:50:33;;;;;;;7.72;1.88;;;16.60;99.90;;;;;;5069534;28;20067;-81
2023/09/14 08:52:59;;;;;;;6.80;1.40;;;16.60;99.90;;;;;;5068583;28;20074;-81
2023/09/14 08:55:31;;;;;;;4.30;1.42;;;16.70;99.90;;;;;;5089490;28;20726;-83
2023/09/14 08:57:57;;;;;;;4.60;1.52;;;16.80;99.90;;;;;;5070866;28;20567;-83
2023/09/14 09:00:26;;;;;;;6.30;1.70;;;16.90;99.90;;;;;;5086458;28;20037;-84
2023/09/14 09:02:53;;;;;;;7.20;1.67;;;16.90;99.90;;;;;;5078031;28;20071;-84
2023/09/14 09:05:21;;;;;;;5.93;1.70;;;17.00;99.90;;;;;;5069797;28;20075;-84
2023/09/14 09:07:50;;;;;;;6.10;1.80;;;17.10;99.90;;;;;;5070191;28;20053;-84
2023/09/14 09:10:23;;;;;;;6.13;1.40;;;17.20;99.90;;;;;;5069974;28;20846;-85
2023/09/14 09:13:00;;;;;;;7.55;1.65;;;17.20;99.90;;;;;;5082799;28;20048;-84
2023/09/14 09:15:27;;;;;;;4.72;1.55;;;17.20;99.90;;;;;;5088330;28;20151;-85
2023/09/14 09:17:54;;;;;;;4.05;1.50;;;17.30;99.90;;;;;;5074292;28;20045;-83
2023/09/14 09:20:24;;;;;;;7.75;2.17;;;17.40;99.90;;;;;;5077633;28;20823;-83
2023/09/14 09:22:51;;;;;;;4.35;1.63;;;17.50;99.90;;;;;;5073839;28;20047;-84
2023/09/14 09:25:19;;;;;;;5.20;1.42;;;17.40;99.90;;;;;;5069310;28;20478;-83
2023/09/14 09:27:44;;;;;;;3.97;1.40;;;17.50;99.90;;;;;;5071070;28;20417;-83
2023/09/14 09:30:11;;;;;;;5.30;1.55;;;17.50;99.90;;;;;;5052328;28;20048;-84
2023/09/14 09:32:42;;;;;;;9.13;1.60;;;17.50;99.90;;;;;;5069725;28;20040;-89
2023/09/14 09:35:22;;;;;;;4.35;1.73;;;17.70;99.90;;;;;;5072132;28;20036;-83
2023/09/14 09:37:49;;;;;;;4.80;2.03;;;17.70;99.90;;;;;;5090023;28;20102;-82
2023/09/14 09:40:22;;;;;;;6.18;1.60;;;17.70;99.90;;;;;;5088968;28;20571;-83
2023/09/14 09:42:48;;;;;;;7.43;1.95;;;;;;;;;;5077594;28;20033;-87
2023/09/14 09:45:14;;;;;;;4.78;1.80;;;17.80;99.90;;;;;;5085779;28;20470;-86
2023/09/14 09:47:41;;;;;;;4.47;1.75;;;17.90;99.90;;;;;;5090685;28;20077;-89
2023/09/14 09:50:12;;;;;;;9.40;1.70;;;18.50;99.90;;;;;;5084113;28;20114;-88
2023/09/14 09:52:39;;;;;;;4.40;1.48;;;18.10;99.90;;;;;;5074445;28;20071;-85
2023/09/14 09:55:06;;;;;;;4.88;1.73;;;18.90;99.90;;;;;;5068924;28;20550;-85
2023/09/14 09:57:36;;;;;;;3.60;2.00;;;18.20;99.90;;;;;;5069132;28;20052;-85
2023/09/14 10:00:14;;;;;;;10.13;2.22;;;18.30;99.90;;;;;;5068607;28;20098;-86
2023/09/14 10:02:41;;;;;;;4.32;1.52;;;18.20;99.90;;;;;;5071163;28;20203;-84
2023/09/14 10:05:07;;;;;;;6.15;1.63;;;18.30;99.90;;;;;;5072619;28;20362;-85
2023/09/14 10:07:41;;;;;;;5.43;2.53;;;18.40;99.90;;;;;;5077112;28;20048;-85
2023/09/14 10:10:10;;;;;;;4.50;1.63;;;18.40;99.90;;;;;;5082984;28;20040;-87
2023/09/14 10:12:41;;;;;;;7.63;1.80;;;18.40;99.90;;;;;;5087181;28;20040;-86
2023/09/14 10:15:08;;;;;;;4.72;1.80;;;18.50;99.90;;;;;;5077334;28;20036;-86
2023/09/14 10:17:35;;;;;;;6.38;1.80;;;18.50;99.90;;;;;;5080302;28;20151;-87
2023/09/14 10:20:05;;;;;;;4.80;1.55;;;18.60;99.90;;;;;;5088060;28;20062;-86
2023/09/14 10:22:31;;;;;;;5.10;1.88;;;18.70;99.90;;;;;;5089143;28;20044;-89
2023/09/14 10:24:58;;;;;;;4.25;1.55;;;18.70;99.90;;;;;;5081306;28;20036;-89
2023/09/14 10:27:27;;;;;;;6.55;1.95;;;18.90;99.90;;;;;;5070229;28;20043;-87
2023/09/14 10:29:58;;;;;;;6.82;2.20;;;19.00;99.90;;;;;;5087075;28;20048;-88
2023/09/14 10:32:25;;;;;;;5.07;1.70;;;19.00;99.90;;;;;;5090362;28;20051;-89
2023/09/14 10:34:55;;;;;;;7.28;1.70;;;19.20;99.90;;;;;;5089039;28;20136;-85
2023/09/14 10:37:23;;;;;;;8.18;2.05;;;19.20;99.90;;;;;;5089446;28;20119;-85
2023/09/14 10:39:51;;;;;;;5.55;1.90;;;19.30;99.90;;;;;;5079145;28;20040;-86
2023/09/14 10:42:17;;;;;;;6.97;1.90;;;19.20;99.90;;;;;;5081458;28;20043;-85
2023/09/14 10:44:44;;;;;;;7.22;1.60;;;19.20;99.90;;;;;;5086879;28;20109;-85
2023/09/14 10:47:11;;;;;;;7.90;2.28;;;19.20;99.90;;;;;;5089229;28;20131;-85
2023/09/14 10:49:41;;;;;;;4.43;1.90;;;19.60;99.90;;;;;;5087126;28;20056;-84
2023/09/14 10:52:07;;;;;;;4.55;1.85;;;19.10;99.90;;;;;;5087593;28;20113;-84
2023/09/14 10:54:33;;;;;;;6.05;1.88;;;19.10;99.90;;;;;;5089046;28;20444;-84
2023/09/14 10:57:00;;;;;;;4.95;1.70;;;19.10;99.90;;;;;;5079191;28;20119;-84
2023/09/14 10:59:47;;;;;;;5.05;1.88;;;19.10;99.90;;;;;;5088022;28;20486;-83
2023/09/14 11:02:45;;;;;;;4.88;1.88;;;19.10;97.50;;;;;;5087101;28;20047;-85
2023/09/14 11:05:19;;;;;;;4.18;2.05;;;19.00;96.40;;;;;;5070634;28;20048;-85
2023/09/14 11:07:50;;;;;;;5.63;2.22;;;19.10;99.00;;;;;;5067173;28;20044;-83
2023/09/14 11:10:22;;;;;;;5.35;2.13;;;19.40;99.30;;;;;;5068405;28;20053;-83
2023/09/14 11:12:48;;;;;;;4.13;1.95;;;19.50;97.20;;;;;;5074251;28;20036;-81
2023/09/14 11:15:22;;;;;;;6.68;1.67;;;19.70;98.10;;;;;;5088582;28;20109;-85
2023/09/14 11:17:52;;;;;;;7.78;2.00;;;19.80;96.40;;;;;;5088474;28;20044;-83
2023/09/14 11:20:20;;;;;;;5.38;2.08;;;19.90;96.30;;;;;;5081278;28;20482;-83
2023/09/14 11:22:48;;;;;;;5.03;2.00;;;19.80;96.10;;;;;;5067675;28;20097;-83
2023/09/14 11:25:32;;;;;;;6.25;2.08;;;19.60;96.10;;;;;;5067602;28;20056;-82
2023/09/14 11:27:58;;;;;;;4.07;1.70;;;19.40;94.70;;;;;;5077363;28;20040;-82
2023/09/14 11:30:24;;;;;;;3.80;1.73;;;19.20;96.40;;;;;;5088298;28;20807;-82
2023/09/14 11:32:52;;;;;;;4.70;1.95;;;19.50;96.80;;;;;;5088304;28;20127;-82
2023/09/14 11:35:18;;;;;;;4.07;1.70;;;19.30;96.20;;;;;;5078012;28;20048;-81
2023/09/14 11:37:46;;;;;;;6.18;2.35;;;19.30;96.10;;;;;;5069674;28;20049;-83
2023/09/14 11:40:15;;;;;;;5.90;1.85;;;19.20;95.40;;;;;;5068123;28;20052;-84
2023/09/14 11:43:06;;;;;;;5.40;2.35;;;19.30;95.50;;;;;;5068402;28;20056;-86
2023/09/14 11:45:38;;;;;;;4.60;1.83;;;19.40;93.50;;;;;;5068645;28;20143;-85
2023/09/14 13:15:24;;;;;;;8.73;2.95;;;20.40;80.60;;;;;;4325893;22;1283631;-82
2023/09/14 13:17:58;;;;;;;5.05;2.78;;;20.50;87.80;;;;;;5041905;28;20057;-80
2023/09/14 13:20:26;;;;;;;6.18;2.85;;;20.40;88.20;;;;;;5045753;28;20182;-79
2023/09/14 13:22:53;;;;;;;4.88;2.53;;;20.30;88.60;;;;;;5039902;28;20051;-79
2023/09/14 13:25:19;;;;;;;4.40;2.53;;;20.30;89.00;;;;;;5027913;28;20354;-79
2023/09/14 13:27:45;;;;;;;3.95;2.33;;;20.10;88.00;;;;;;5063263;28;20049;-79
2023/09/14 13:30:12;;;;;;;6.93;2.30;;;20.10;88.90;;;;;;5044487;28;20454;-79
2023/09/14 13:32:41;;;;;;;4.57;2.60;;;19.90;87.70;;;;;;5061215;28;20047;-79
2023/09/14 13:35:08;;;;;;;3.95;2.17;;;19.80;88.50;;;;;;5042482;28;20132;-81
2023/09/14 13:37:38;;;;;;;4.25;2.30;;;19.90;90.00;;;;;;5037446;28;20041;-80
2023/09/14 13:40:08;;;;;;;4.65;2.67;;;19.90;88.30;;;;;;5053964;28;20050;-83
2023/09/14 13:42:35;;;;;;;4.13;2.45;;;19.90;88.30;;;;;;5033641;28;20048;-82
2023/09/14 13:45:01;;;;;;;8.85;2.55;;;20.00;87.50;;;;;;5040982;28;20484;-80
2023/09/14 13:47:27;;;;;;;6.22;2.28;;;20.10;86.40;;;;;;5040001;28;20055;-83
2023/09/14 13:49:52;;;;;;;5.53;2.65;;;20.10;87.00;;;;;;5046056;28;20064;-82
2023/09/14 13:52:18;;;;;;;5.28;2.50;;;20.10;86.70;;;;;;5041768;28;20068;-85
2023/09/14 13:54:43;;;;;;;7.47;2.33;;;20.10;86.10;;;;;;5059318;28;20093;-82
2023/09/14 13:57:12;;;;;;;6.55;2.63;;;20.10;86.00;;;;;;5064827;28;20052;-81
2023/09/14 13:59:38;;;;;;;7.82;2.25;;;20.10;86.80;;;;;;5029688;28;20790;-81
2023/09/14 14:02:03;;;;;;;3.80;2.17;;;20.00;87.20;;;;;;5058770;28;20045;-83
2023/09/14 14:04:31;;;;;;;5.72;2.60;;;19.90;87.10;;;;;;5060511;28;20513;-86
2023/09/14 14:06:58;;;;;;;4.57;2.40;;;20.00;87.60;;;;;;5045716;28;20060;-86
2023/09/14 14:09:23;;;;;;;6.63;2.38;;;20.00;87.10;;;;;;5041082;28;20107;-86
2023/09/14 14:11:49;;;;;;;8.63;2.60;;;20.10;86.40;;;;;;5017693;28;20460;-86
2023/09/14 14:14:14;;;;;;;4.78;2.35;;;20.00;87.00;;;;;;5042406;28;20195;-86
2023/09/14 14:16:42;;;;;;;6.15;2.80;;;20.00;86.40;;;;;;5030524;28;20862;-87
2023/09/14 14:19:08;;;;;;;4.95;2.65;;;20.00;85.60;;;;;;5011625;28;20053;-86
2023/09/14 14:21:34;;;;;;;4.65;2.40;;;20.00;85.00;;;;;;5007115;28;20107;-86